Latest Coastal Weather Observations for Maatsuyker Island

IDT60701

Issued at 4:42 am EDT Wednesday 29 March 2017 (issued every 10 minutes, with the page automatically refreshed every 10 minutes)

About coastal observations | Map of coastal stations | Coastal observations for TAS | Marine services | Other Formats
Station Details ID: 094041 Name: MAATSUYKER ISLAND LIGHTHOUSE Lat: -43.66 Lon: 146.27 Height: 146.5 m
Data from the previous 72 hours. | See also: Recent months at Maatsuyker Island
Date/Time
EDT
Temp
°C
Wind Pressure Rain since
9am
mm
Weather Cloud Vis
km
Sea
Height
m
Swell
Dir  Spd
kts
Gust
kts
hPa Trend Height
m
Period
s
Dir
29/04:30am 15.2 NNW 24 31 999.5 - 0.6 - - - - - - -
29/04:13am 14.9 NNW 24 34 999.6 - 0.6 - - - - - - -
29/04:00am 14.0 NNW 26 34 999.8 - 0.6 - - - - - - -
29/03:32am 15.0 NNW 25 36 999.9 - 0.6 - - - - - - -
29/03:30am 14.9 NNW 25 34 1000.1 - 0.6 - - - - - - -
29/03:19am 14.8 NNW 26 38 1000.1 - 0.6 - - - - - - -
29/03:00am 14.6 NNW 27 35 1000.3 - 0.6 - - - - - - -
29/02:30am 14.5 NNW 25 33 1000.8 - 0.6 - - - - - - -
29/02:06am 14.9 NNW 25 35 1001.2 - 0.6 - - - - - - -
29/02:00am 14.9 NNW 26 35 1001.2 - 0.6 - - - - - - -
29/01:30am 14.9 NNW 27 38 1000.8 - 0.6 - - - - - - -
29/01:12am 14.5 NNW 28 38 1001.0 - 0.6 - - - - - - -
29/01:00am 14.7 NNW 28 37 1001.3 - 0.6 - - - - - - -
29/12:30am 14.7 NNW 27 35 1001.4 - 0.6 - - - - - - -
29/12:05am 14.3 NNW 28 40 1001.6 - 0.4 - - - - - - -
29/12:00am 14.3 NNW 27 35 1001.7 - 0.4 - - - - - - -
 
Date/Time
EDT
Temp
°C
Wind Pressure Rain since
9am
mm
Weather Cloud Vis
km
Sea
Height
m
Swell
Dir  Spd
kts
Gust
kts
hPa Trend Height
m
Period
s
Dir
28/11:30pm 14.0 NNW 24 32 1002.3 - 0.4 - - - - - - -
28/11:27pm 14.0 NNW 25 35 1002.3 - 0.4 - - - - - - -
28/11:00pm 14.5 NNW 26 34 1002.6 - 0.4 - - - - - - -
28/10:30pm 14.5 NNW 23 34 1002.7 - 0.4 - - - - - - -
28/10:00pm 14.6 NNW 28 38 1002.7 - 0.4 - - - - - - -
28/09:30pm 15.1 NNW 31 42 1002.4 - 0.4 - - - - - - -
28/09:00pm 15.7 NNW 29 40 1002.3 - 0.4 - - - - - - -
28/08:30pm 15.5 NNW 30 41 1002.6 - 0.4 - - - - - - -
28/08:00pm 15.7 NNW 28 39 1002.1 - 0.4 - - - - - - -
28/07:30pm 15.7 NNW 29 41 1002.3 - 0.4 - - - - - - -
28/07:00pm 16.1 NNW 30 42 1001.9 - 0.4 - - - - - - -
28/06:30pm 16.5 NNW 34 44 1001.5 - 0.4 - - - - - - -
28/06:00pm 16.5 NNW 34 49 1001.5 - 0.4 - - - - - - -
28/05:30pm 17.0 NNW 35 48 1000.9 - 0.4 - - - - - - -
28/05:00pm 16.8 NNW 30 41 1001.1 - 0.4 - - - - - - -
28/04:30pm 16.3 NNW 33 43 1001.4 - 0.4 - - - - - - -
28/04:00pm 16.7 NNW 38 51 1001.0 - 0.4 - - - - - - -
28/03:30pm 16.4 NNW 41 55 1001.3 - 0.4 - - - - - - -
28/03:02pm 15.8 NNW 40 50 1001.3 - 0.4 - - - - - - -
28/03:00pm 15.8 NNW 40 48 1001.1 - 0.4 - - - - - - -
28/02:30pm 15.6 NNW 43 53 1001.2 - 0.4 - - - - - - -
28/02:00pm 16.2 NNW 42 53 1001.2 - 0.4 - - - - - - -
28/01:56pm 16.1 NNW 43 53 1000.8 - 0.4 - - - - - - -
28/01:54pm 16.1 NNW 46 53 1001.0 - 0.4 - - - - - - -
28/01:33pm 16.1 NNW 34 44 1001.6 - 0.4 - - - - - - -
28/01:30pm 16.3 NNW 34 43 1001.4 - 0.4 - - - - - - -
28/01:20pm 15.9 NNW 35 49 1001.6 - 0.4 - - - - - - -
28/01:19pm 15.9 NNW 33 41 1001.8 - 0.4 - - - - - - -
28/01:07pm 16.0 NNW 45 55 1000.8 - 0.4 - - - - - - -
28/01:06pm 16.0 NNW 45 53 1001.0 - 0.4 - - - - - - -
28/01:00pm 15.9 NNW 34 50 1002.0 - 0.4 - - - - - - -
28/12:30pm 15.3 NNW 33 43 1002.5 - 0.4 - - - - - - -
28/12:00pm 15.6 NNW 35 46 1002.4 - 0.4 - - - - - - -
28/11:30am 15.2 NNW 30 42 1002.6 - 0.4 - - - - - - -
28/11:08am 14.9 NNW 30 45 1002.8 - 0.4 - - - - - - -
28/11:00am - NNW 29 36 - - 0.4 - - - - - - -
28/10:30am 13.8 NNW 33 50 1003.1 - 0.4 - - - - - - -
28/10:18am 13.9 NNW 31 41 1002.8 - 0.4 - - - - - - -
28/10:00am 13.5 NNW 30 38 1002.8 - 0.4 - - - - - - -
28/09:53am 13.4 NNW 31 41 1003.0 - 0.4 - - - - - - -
28/09:49am 13.2 NNW 33 41 1002.8 - 0.4 - - - - - - -
28/09:45am 13.1 NNW 45 56 1001.8 - 0.4 - - - - - - -
28/09:44am 13.1 NNW 31 56 1002.4 - 0.2 - - - - - - -
28/09:30am 14.2 NNW 32 42 1002.8 - 0.0 - - - - - - -
28/09:00am 13.5 NNW 28 41 1002.7 R 9.6 Rain Mostly cloudy 10 2 2.5 9 SW
28/08:31am 13.2 NNW 30 40 1002.6 - 9.6 - - - - - - -
28/08:30am 13.3 NNW 29 37 1002.8 - 9.6 - - - - - - -
28/08:19am 13.2 NNW 27 37 1002.8 - 9.6 - - - - - - -
28/08:00am 13.5 NNW 28 37 1002.7 - 9.2 - - - - - - -
28/07:35am 13.9 NNW 27 37 1002.3 - 9.2 - - - - - - -
28/07:30am 13.8 NNW 27 35 1002.5 - 9.2 - - - - - - -
28/07:04am 13.8 NNW 33 43 1001.7 - 9.2 - - - - - - -
28/07:00am 13.8 NNW 35 44 1001.6 - 9.2 - - - - - - -
28/06:30am 14.1 NNW 40 50 1001.2 - 9.2 - - - - - - -
28/06:00am 13.1 NNW 35 52 1000.7 R 9.0 Fine Mostly cloudy 2 3 3.0 8 SW
28/05:46am 14.7 NNW 38 - 1000.7 - - - - - - - - -
28/05:40am 14.7 NNW 38 50 1000.3 - 8.8 - - - - - - -
28/05:30am 14.7 NNW 37 46 1000.6 - 8.8 - - - - - - -
28/05:04am 14.3 NNW 39 50 1000.2 - 8.8 - - - - - - -
28/05:00am 14.2 NNW 39 47 1000.5 - 8.8 - - - - - - -
28/04:30am 13.1 NNW 42 53 1000.3 - 8.8 - - - - - - -
28/04:12am 14.1 NNW 41 51 1000.6 - 8.8 - - - - - - -
28/04:00am 14.6 NNW 45 51 999.6 - 8.8 - - - - - - -
28/03:30am 14.8 NNW 47 57 999.8 - 8.8 - - - - - - -
28/03:05am 14.6 NNW 43 55 1000.2 - 8.8 - - - - - - -
28/03:00am 14.7 NNW 43 52 1000.3 - 8.8 - - - - - - -
28/02:30am 14.4 NNW 41 53 999.6 - 8.8 - - - - - - -
28/02:00am 14.8 NNW 39 49 1000.2 - 8.8 - - - - - - -
28/01:30am 14.7 NNW 35 45 1000.5 - 8.8 - - - - - - -
28/01:00am 14.8 NNW 40 50 1000.3 - 8.8 - - - - - - -
28/12:30am 14.7 NNW 40 51 1000.2 - 8.8 - - - - - - -
28/12:00am 14.7 NNW 40 51 1000.5 - 8.8 - - - - - - -
 
Date/Time
EDT
Temp
°C
Wind Pressure Rain since
9am
mm
Weather Cloud Vis
km
Sea
Height
m
Swell
Dir  Spd
kts
Gust
kts
hPa Trend Height
m
Period
s
Dir
27/11:30pm 14.6 NNW 39 49 1000.8 - 8.8 - - - - - - -
27/11:19pm 14.5 NNW 38 48 1001.0 - 8.8 - - - - - - -
27/11:00pm 14.6 NNW 46 54 1000.5 - 8.8 - - - - - - -
27/10:34pm 14.8 NNW 40 50 1001.0 - 8.8 - - - - - - -
27/10:30pm 14.8 NNW 42 50 1000.8 - 8.8 - - - - - - -
27/10:00pm 14.7 NNW 47 57 999.9 - 8.8 - - - - - - -
27/09:44pm 14.7 NNW 45 55 999.3 - 8.8 - - - - - - -
27/09:30pm 14.7 NW 48 57 998.9 - 8.8 - - - - - - -
27/09:00pm 15.1 NW 52 63 997.9 - 8.8 - - - - - - -
27/08:30pm 15.2 NW 56 69 996.7 - 8.8 - - - - - - -
27/08:12pm 15.2 NW 61 71 995.3 - 8.8 - - - - - - -
27/08:10pm 15.3 NW 61 67 995.5 - 8.8 - - - - - - -
27/08:00pm 15.1 NNW 50 60 996.1 - 8.8 - - - - - - -
27/07:30pm 15.2 NNW 50 61 995.5 - 8.8 - - - - - - -
27/07:00pm 15.6 NNW 46 60 994.5 - 8.8 - - - - - - -
27/06:30pm 15.3 NNW 42 53 995.3 - 8.8 - - - - - - -
27/06:00pm 15.2 NNW 40 53 994.8 - 8.8 - - - - - - -
27/05:30pm 14.6 NNW 34 45 995.6 - 8.8 - - - - - - -
27/05:00pm 14.0 NNW 32 44 995.4 - 8.8 - - - - - - -
27/04:39pm 13.6 NNW 31 41 995.8 - 8.8 - - - - - - -
27/04:30pm 13.3 NNW 31 40 996.2 - 8.8 - - - - - - -
27/04:01pm 12.9 NNW 29 39 997.4 - 8.8 - - - - - - -
27/04:00pm 12.9 NNW 29 38 997.6 - 8.8 - - - - - - -
27/03:39pm 12.7 NNW 26 36 997.8 - 8.8 - - - - - - -
27/03:30pm 12.4 NNW 29 35 997.5 - 8.6 - - - - - - -
27/03:27pm 12.5 NNW 29 35 997.5 - 8.6 - - - - - - -
27/03:23pm 12.2 NNW 41 51 997.4 - 8.6 - - - - - - -
27/03:18pm 12.3 NNW 43 51 996.7 - 8.6 - - - - - - -
27/03:15pm 12.4 NW 56 66 996.2 - 8.4 - - - - - - -
27/03:00pm 13.1 NW 58 67 995.5 - 7.8 - - - - - - -
27/02:49pm 13.8 NW 60 66 994.8 - 7.2 - - - - - - -
27/02:35pm 14.5 NNW 49 61 994.9 - 6.4 - - - - - - -
27/02:30pm 14.4 NNW 50 58 994.5 - 6.2 - - - - - - -
27/02:00pm 15.4 NNW 47 60 994.1 - 4.2 - - - - - - -
27/01:30pm 15.2 NNW 50 64 993.1 - 3.8 - - - - - - -
27/01:24pm 15.1 NNW 54 64 992.5 - 3.6 - - - - - - -
27/01:23pm 14.9 NNW 55 64 992.3 - 3.4 - - - - - - -
27/01:17pm 15.6 NNW 66 78 990.7 - 3.0 - - - - - - -
27/01:16pm 16.2 NNW 51 78 990.8 - 2.8 - - - - - - -
27/01:04pm 17.4 NNW 50 60 991.8 - 0.8 - - - - - - -
27/01:03pm 17.7 NNW 51 60 991.8 - 0.8 - - - - - - -
27/01:00pm 19.8 NNW 38 53 992.2 - 0.4 - - - - - - -
27/12:59pm 20.1 NNW 35 52 992.1 - 0.2 - - - - - - -
27/12:49pm 22.2 NNW 30 42 992.8 - 0.0 - - - - - - -
27/12:33pm 23.2 NNW 22 32 992.7 - 0.0 - - - - - - -
27/12:30pm 23.3 NNW 21 30 992.7 - 0.0 - - - - - - -
27/12:06pm 23.8 N 19 29 992.9 - 0.0 - - - - - - -
27/12:00pm 23.4 N 19 26 993.1 - 0.0 - - - - - - -
27/11:30am 23.5 N 17 27 994.4 - 0.0 - - - - - - -
27/11:00am 23.3 N 18 25 994.8 - 0.0 - - - - - - -
27/10:30am 22.6 N 19 26 995.4 - 0.0 - - - - - - -
27/10:00am 22.9 N 14 22 996.3 - 0.0 - - - - - - -
27/09:00am 22.5 N 16 26 997.5 F 0.0 Fine Mostly cloudy 22 <0.1 2.5 13 SW
27/08:35am 22.4 N 15 27 998.1 - 0.0 - - - - - - -
27/08:30am 22.1 N 14 21 998.4 - 0.0 - - - - - - -
27/08:06am 21.6 N 15 25 999.0 - 0.0 - - - - - - -
27/08:00am 21.5 N 16 22 999.3 - 0.0 - - - - - - -
27/07:30am 20.4 N 15 21 999.7 - 0.0 - - - - - - -
27/07:00am 19.4 N 13 20 1000.2 - 0.0 - - - - - - -
27/06:30am 20.0 N 13 21 1000.7 - 0.0 - - - - - - -
27/06:00am 18.8 N 12 18 1001.3 F 0.0 Thunder Mostly clear 2 1 1.5 13 SW
27/05:30am 18.1 N 13 18 1002.0 - 0.0 - - - - - - -
27/05:00am 17.5 N 10 17 1002.8 - 0.0 - - - - - - -
27/04:30am 17.4 N 10 13 1003.3 - 0.0 - - - - - - -
27/04:00am 17.5 N 10 14 1003.7 - 0.0 - - - - - - -
27/03:30am 17.1 N 8 12 1004.7 - 0.0 - - - - - - -
27/03:00am 17.2 N 9 11 1005.5 - 0.0 - - - - - - -
27/02:30am 17.0 N 9 11 1006.1 - 0.0 - - - - - - -
27/02:00am 16.1 N 7 9 1006.8 - 0.0 - - - - - - -
27/01:30am 16.9 N 9 13 1007.4 - 0.0 - - - - - - -
27/01:00am 16.3 N 6 11 1007.8 - 0.0 - - - - - - -
27/12:30am 17.0 NNE 7 10 1008.5 - 0.0 - - - - - - -
27/12:00am 16.9 NNE 7 10 1009.0 - 0.0 - - - - - - -
 
Date/Time
EDT
Temp
°C
Wind Pressure Rain since
9am
mm
Weather Cloud Vis
km
Sea
Height
m
Swell
Dir  Spd
kts
Gust
kts
hPa Trend Height
m
Period
s
Dir
26/11:30pm 16.5 NE 2 6 1009.7 - 0.0 - - - - - - -
26/11:00pm 17.2 ENE 5 9 1010.2 - 0.0 - - - - - - -
26/10:30pm 15.1 NE 1 3 1011.2 - 0.0 - - - - - - -
26/10:00pm 15.4 N 2 5 1011.5 - 0.0 - - - - - - -
26/09:30pm 15.3 N 7 13 1011.5 - 0.0 - - - - - - -
26/09:00pm 15.3 N 7 12 1011.6 - 0.0 - - - - - - -
26/08:30pm 15.4 WNW 6 9 1012.1 - 0.0 - - - - - - -
26/08:00pm 15.5 NW 5 7 1012.5 - 0.0 - - - - - - -
26/07:30pm 15.3 NW 4 7 1012.8 - 0.0 - - - - - - -
26/07:00pm 15.7 NW 3 5 1012.9 - 0.0 - - - - - - -
26/06:30pm 16.5 NNW 2 5 1013.0 - 0.0 - - - - - - -
26/06:00pm 17.5 N 2 5 1013.2 - 0.0 - - - - - - -
26/05:30pm 17.6 NW 3 5 1013.4 - 0.0 - - - - - - -
26/05:00pm 17.7 NNW 4 7 1013.5 - 0.0 - - - - - - -
26/04:30pm 16.7 E 3 7 1013.7 - 0.0 - - - - - - -
26/04:00pm 17.3 SE 8 9 1014.1 - 0.0 - - - - - - -
26/03:30pm 17.0 SE 5 7 1014.3 - 0.0 - - - - - - -
26/03:00pm 16.9 SSE 5 6 1014.5 - 0.0 - - - - - - -
26/02:30pm 16.6 SW 3 4 1014.8 - 0.0 - - - - - - -
26/02:00pm 16.9 NW 4 5 1015.0 - 0.0 - - - - - - -
26/01:30pm 16.7 WNW 4 5 1015.3 - 0.0 - - - - - - -
26/01:00pm 16.3 W 3 5 1015.6 - 0.0 - - - - - - -
26/12:30pm 15.6 WNW 5 7 1015.9 - 0.0 - - - - - - -
26/12:00pm 15.4 W 5 7 1016.2 - 0.0 - - - - - - -
26/11:30am 15.2 W 5 7 1016.4 - 0.0 - - - - - - -
26/11:00am 15.1 W 4 6 1016.2 - 0.0 - - - - - - -
26/10:30am 15.1 W 6 8 1016.2 - 0.0 - - - - - - -
26/10:00am 14.9 W 6 8 1016.1 - 0.0 - - - - - - -
26/09:30am 14.7 W 8 10 1015.8 - 0.0 - - - - - - -
26/09:00am 14.8 WNW 11 13 1015.6 R 0.0 Recent precip. Cloudy 0 <0.1 1.0 14 SW
26/08:30am 14.7 WNW 12 13 1015.5 - 0.0 - - - - - - -
26/08:00am 14.8 NW 11 12 1015.0 - 0.0 - - - - - - -
26/07:30am 14.7 NW 11 11 1014.6 - 0.0 - - - - - - -
26/07:00am 14.9 NW 10 12 1014.2 - 0.0 - - - - - - -
26/06:30am 14.7 NW 12 13 1013.7 - 0.0 - - - - - - -
26/06:00am 14.9 NW 13 14 1013.4 F 0.0 Distant precip. Cloudy 18 <0.5 1.5 13 SW
26/05:30am 15.0 NW 12 13 1013.4 - 0.0 - - - - - - -
26/05:00am 15.1 NNW 10 12 1013.5 - 0.0 - - - - - - -

Other Formats:

Comma delimited format used in spreadsheet applications
http://www.bom.gov.au/fwo/IDT60701/IDT60701.94962.axf

JavaScript Object Notation format (JSON) in row-major order
http://www.bom.gov.au/fwo/IDT60701/IDT60701.94962.json